Wayne County Information

FAA: EKQ - ICAO: KEKQ

Wayne County (Airport) Location

State Kentucky
County Wayne
City Monticello
Wayne County (Airport) is 2 miles north of Monticello, KY.
Latitude 36-51-19.0000N
Longitude 084-51-22.1000W
Elevation 962ft

Wayne County METARs

METAR KEKQ 292256Z AUTO 00000KT 10SM CLR 01/M05 A3013 RMK AO2 SLP211 T00061050
Altimeter 30.13"
Temperature 0.6°C (33.1°F)
Wind 0° at 0KT
Clouds Skies are clear.
Visibility 10.0mi
Time observed: 2021-11-29T22:56:00Z

Wayne County (Airport) Details

Status Operational
Activation October 1975
Ownership Public
Usage Public
Chart CINCINNATI
ATC on-site No
Beacon schedule sunset-sunrise
Beacon color clear green

Wayne County (Airport) Contacts

Owner WAYNE CO ARPT BOARD
Owner address P.O. BOX 439, MONTICELLO, KY 42633
Owner phone 606-348-4241
Manager TIM JENKINS
Manager address 200 OLD TIMERS ROAD, MANCHESTER, KY 40962
Manager phone 606-273-7846

Wayne County Radio Frequencies

Wayne County (Airport) Radio Frequencies

UNICOM 122.8
Common traffic advisory frequency (CTAF) 122.8